Cupertino, CA (95014)

6:47 PM PDT on March 28, 2017 (GMT -0700)
Monta Vista North | | Change Station

Elev 340 ft 37.33 °N, 122.06 °W | Updated 1 minute ago

Clear
Clear
69.2 °F
Feels Like 69.2 °F
N
0.8
Wind Variable Wind from WSW
Gusts 2.0 mph

Today
High -- | Low -- °F
--% Chance of Precip.
Yesterday
High -- | Low -- °F
Precip. -- in
Pressure 30.15 in
Visibility 10.0 miles
Clouds Clear
Dew Point 39 °F
Humidity 33%
Rainfall Not available.
Snow Depth Not available.
6:59 AM 7:27 PM
New Moon, 1% visible
METAR KNUQ 290056Z 33009KT 10SM CLR 21/08 A3014 RMK AO2 SLP210 T02110078
Pressure 30.15 in
Visibility 10.0 miles
Clouds Clear
Dew Point 39 °F
Humidity 33%
Rainfall Not available.
Snow Depth Not available.
6:59 AM 7:27 PM
New Moon, 1% visible
METAR KNUQ 290056Z 33009KT 10SM CLR 21/08 A3014 RMK AO2 SLP210 T02110078

Get Severe Weather Alerts

Thanks for signing up!

Be on the lookout for a verification email in your inbox.

You'll start receiving the daily forecast at 8 AM.

×

10-Day Weather Forecast

Almanac

Astronomy

Mar. 28, 2017 Rise Set
Actual Time
Civil Twilight
Nautical Twilight
Astronomical Twilight
Moon
Length of Visible Light
Length of Day
Tomorrow will be .
, % of the Moon is Illuminated

Today's Extremes

State Highs State Lows

Community

WunderPhotos

Upload Photos

1,962,540 photos uploaded!

WunderBlog® & News

Nearby

Air Quality

  Air Quality AQ Index Pollutant
Not available.

Snow Depth

Station Depth Elevation

Earthquake Activity

City Distance Mag. Time & Date
Minimum magnitude displayed is 2.5.

Earthquake Activity

City Distance Mag. Time & Date
Minimum magnitude displayed is 2.5.

Coastal Water Temperatures

Place Temperature

Stations

Nearby Weather Stations

Station Location Temp. Windchill Dew Point Humidity Wind Precip. Elev Updated Type
                   

Watches & Warnings

There are currently no watches in effect.